sensor_id;sensor_type;location;lat;lon;timestamp;P1;durP1;ratioP1;P2;durP2;ratioP2
21103;SDS011;10710;53.398;-1.514;2023-09-08T00:01:08;18.02;;;8.75;;
21103;SDS011;10710;53.398;-1.514;2023-09-08T00:03:53;14.45;;;8.88;;
21103;SDS011;10710;53.398;-1.514;2023-09-08T00:06:37;15.98;;;8.38;;
21103;SDS011;10710;53.398;-1.514;2023-09-08T00:09:22;17.65;;;8.88;;
21103;SDS011;10710;53.398;-1.514;2023-09-08T00:12:06;14.80;;;8.48;;
21103;SDS011;10710;53.398;-1.514;2023-09-08T00:14:54;15.50;;;8.90;;
21103;SDS011;10710;53.398;-1.514;2023-09-08T00:17:39;16.90;;;8.80;;
21103;SDS011;10710;53.398;-1.514;2023-09-08T00:20:28;15.13;;;8.90;;
21103;SDS011;10710;53.398;-1.514;2023-09-08T00:23:23;15.55;;;8.95;;
21103;SDS011;10710;53.398;-1.514;2023-09-08T00:26:15;14.63;;;8.82;;
21103;SDS011;10710;53.398;-1.514;2023-09-08T00:29:00;16.70;;;9.23;;
21103;SDS011;10710;53.398;-1.514;2023-09-08T00:31:47;16.20;;;8.98;;
21103;SDS011;10710;53.398;-1.514;2023-09-08T00:34:32;16.95;;;9.73;;
21103;SDS011;10710;53.398;-1.514;2023-09-08T00:37:17;16.70;;;8.82;;
21103;SDS011;10710;53.398;-1.514;2023-09-08T00:40:05;16.52;;;9.48;;
21103;SDS011;10710;53.398;-1.514;2023-09-08T00:42:52;16.17;;;9.05;;
21103;SDS011;10710;53.398;-1.514;2023-09-08T00:45:40;16.10;;;9.40;;
21103;SDS011;10710;53.398;-1.514;2023-09-08T00:48:26;14.98;;;8.95;;
21103;SDS011;10710;53.398;-1.514;2023-09-08T00:51:10;18.05;;;9.50;;
21103;SDS011;10710;53.398;-1.514;2023-09-08T00:53:56;14.82;;;9.02;;
21103;SDS011;10710;53.398;-1.514;2023-09-08T00:56:41;18.63;;;9.82;;
21103;SDS011;10710;53.398;-1.514;2023-09-08T00:59:27;15.20;;;9.40;;
21103;SDS011;10710;53.398;-1.514;2023-09-08T01:02:12;15.52;;;9.27;;
21103;SDS011;10710;53.398;-1.514;2023-09-08T01:04:56;15.05;;;9.07;;
21103;SDS011;10710;53.398;-1.514;2023-09-08T01:07:43;15.55;;;9.32;;
21103;SDS011;10710;53.398;-1.514;2023-09-08T01:10:28;13.68;;;8.82;;
21103;SDS011;10710;53.398;-1.514;2023-09-08T01:13:13;15.77;;;9.32;;
21103;SDS011;10710;53.398;-1.514;2023-09-08T01:15:58;20.98;;;9.23;;
21103;SDS011;10710;53.398;-1.514;2023-09-08T01:18:43;16.85;;;9.85;;
21103;SDS011;10710;53.398;-1.514;2023-09-08T01:27:20;14.68;;;9.43;;
21103;SDS011;10710;53.398;-1.514;2023-09-08T01:30:07;15.10;;;8.73;;
21103;SDS011;10710;53.398;-1.514;2023-09-08T01:32:52;15.30;;;8.55;;
21103;SDS011;10710;53.398;-1.514;2023-09-08T01:35:38;16.85;;;9.20;;
21103;SDS011;10710;53.398;-1.514;2023-09-08T01:38:23;16.02;;;9.35;;
21103;SDS011;10710;53.398;-1.514;2023-09-08T01:41:08;18.02;;;9.50;;
21103;SDS011;10710;53.398;-1.514;2023-09-08T01:43:53;15.43;;;9.18;;
21103;SDS011;10710;53.398;-1.514;2023-09-08T01:46:38;15.88;;;9.25;;
21103;SDS011;10710;53.398;-1.514;2023-09-08T01:49:25;15.25;;;8.55;;
21103;SDS011;10710;53.398;-1.514;2023-09-08T01:52:09;14.43;;;8.95;;
21103;SDS011;10710;53.398;-1.514;2023-09-08T01:54:54;16.40;;;9.02;;
21103;SDS011;10710;53.398;-1.514;2023-09-08T01:57:39;15.97;;;9.37;;
21103;SDS011;10710;53.398;-1.514;2023-09-08T02:00:24;17.90;;;10.18;;
21103;SDS011;10710;53.398;-1.514;2023-09-08T02:03:08;17.35;;;9.88;;
21103;SDS011;10710;53.398;-1.514;2023-09-08T02:05:53;16.70;;;9.57;;
21103;SDS011;10710;53.398;-1.514;2023-09-08T02:08:37;17.10;;;9.57;;
21103;SDS011;10710;53.398;-1.514;2023-09-08T02:11:22;18.52;;;10.15;;
21103;SDS011;10710;53.398;-1.514;2023-09-08T02:14:07;20.67;;;9.65;;
21103;SDS011;10710;53.398;-1.514;2023-09-08T02:16:52;22.77;;;9.93;;
21103;SDS011;10710;53.398;-1.514;2023-09-08T02:19:37;18.83;;;9.60;;
21103;SDS011;10710;53.398;-1.514;2023-09-08T02:22:21;16.05;;;9.60;;
21103;SDS011;10710;53.398;-1.514;2023-09-08T02:25:06;18.00;;;9.27;;
21103;SDS011;10710;53.398;-1.514;2023-09-08T02:27:51;17.70;;;9.38;;
21103;SDS011;10710;53.398;-1.514;2023-09-08T02:30:36;18.38;;;9.32;;
21103;SDS011;10710;53.398;-1.514;2023-09-08T02:33:21;15.77;;;9.98;;
21103;SDS011;10710;53.398;-1.514;2023-09-08T02:36:05;16.58;;;9.55;;
21103;SDS011;10710;53.398;-1.514;2023-09-08T02:38:51;18.90;;;10.07;;
21103;SDS011;10710;53.398;-1.514;2023-09-08T02:41:36;19.60;;;9.82;;
21103;SDS011;10710;53.398;-1.514;2023-09-08T02:44:20;17.95;;;9.80;;
21103;SDS011;10710;53.398;-1.514;2023-09-08T02:47:10;19.00;;;10.57;;
21103;SDS011;10710;53.398;-1.514;2023-09-08T02:49:54;17.85;;;10.27;;
21103;SDS011;10710;53.398;-1.514;2023-09-08T02:52:40;17.27;;;10.23;;
21103;SDS011;10710;53.398;-1.514;2023-09-08T02:55:25;17.80;;;10.65;;
21103;SDS011;10710;53.398;-1.514;2023-09-08T02:58:10;17.30;;;9.65;;
21103;SDS011;10710;53.398;-1.514;2023-09-08T03:00:55;20.70;;;10.83;;
21103;SDS011;10710;53.398;-1.514;2023-09-08T03:03:41;20.42;;;10.02;;
21103;SDS011;10710;53.398;-1.514;2023-09-08T03:06:26;18.38;;;9.90;;
21103;SDS011;10710;53.398;-1.514;2023-09-08T03:09:10;18.08;;;10.15;;
21103;SDS011;10710;53.398;-1.514;2023-09-08T03:11:55;17.40;;;9.40;;
21103;SDS011;10710;53.398;-1.514;2023-09-08T03:14:40;17.60;;;9.77;;
21103;SDS011;10710;53.398;-1.514;2023-09-08T03:17:27;17.43;;;9.80;;
21103;SDS011;10710;53.398;-1.514;2023-09-08T03:20:12;19.17;;;10.55;;
21103;SDS011;10710;53.398;-1.514;2023-09-08T03:22:57;19.63;;;10.32;;
21103;SDS011;10710;53.398;-1.514;2023-09-08T03:25:43;18.40;;;10.00;;
21103;SDS011;10710;53.398;-1.514;2023-09-08T03:28:27;19.58;;;10.52;;
21103;SDS011;10710;53.398;-1.514;2023-09-08T03:31:12;21.70;;;9.88;;
21103;SDS011;10710;53.398;-1.514;2023-09-08T03:33:57;20.70;;;10.02;;
21103;SDS011;10710;53.398;-1.514;2023-09-08T03:36:41;20.27;;;10.10;;
21103;SDS011;10710;53.398;-1.514;2023-09-08T03:39:26;20.33;;;10.50;;
21103;SDS011;10710;53.398;-1.514;2023-09-08T03:42:10;18.90;;;10.10;;
21103;SDS011;10710;53.398;-1.514;2023-09-08T03:44:55;18.13;;;10.15;;
21103;SDS011;10710;53.398;-1.514;2023-09-08T03:47:40;19.70;;;10.27;;
21103;SDS011;10710;53.398;-1.514;2023-09-08T03:50:24;19.10;;;9.00;;
21103;SDS011;10710;53.398;-1.514;2023-09-08T03:53:09;16.95;;;9.45;;
21103;SDS011;10710;53.398;-1.514;2023-09-08T03:55:55;17.00;;;9.93;;
21103;SDS011;10710;53.398;-1.514;2023-09-08T03:58:39;20.93;;;9.50;;
21103;SDS011;10710;53.398;-1.514;2023-09-08T04:01:24;19.23;;;9.85;;
21103;SDS011;10710;53.398;-1.514;2023-09-08T04:04:09;17.73;;;9.52;;
21103;SDS011;10710;53.398;-1.514;2023-09-08T04:06:53;17.42;;;9.52;;
21103;SDS011;10710;53.398;-1.514;2023-09-08T04:09:38;20.88;;;9.40;;
21103;SDS011;10710;53.398;-1.514;2023-09-08T04:12:23;17.58;;;9.77;;
21103;SDS011;10710;53.398;-1.514;2023-09-08T04:15:08;16.75;;;9.63;;
21103;SDS011;10710;53.398;-1.514;2023-09-08T04:17:53;16.30;;;9.23;;
21103;SDS011;10710;53.398;-1.514;2023-09-08T04:20:39;16.10;;;8.85;;
21103;SDS011;10710;53.398;-1.514;2023-09-08T04:23:27;18.60;;;9.60;;
21103;SDS011;10710;53.398;-1.514;2023-09-08T04:26:12;17.35;;;8.40;;
21103;SDS011;10710;53.398;-1.514;2023-09-08T04:28:57;16.73;;;9.23;;
21103;SDS011;10710;53.398;-1.514;2023-09-08T04:31:41;16.33;;;8.25;;
21103;SDS011;10710;53.398;-1.514;2023-09-08T04:34:26;16.80;;;9.45;;
21103;SDS011;10710;53.398;-1.514;2023-09-08T04:37:11;17.30;;;9.00;;
21103;SDS011;10710;53.398;-1.514;2023-09-08T04:39:56;19.65;;;9.13;;
21103;SDS011;10710;53.398;-1.514;2023-09-08T04:42:40;20.55;;;9.25;;
21103;SDS011;10710;53.398;-1.514;2023-09-08T04:45:25;17.55;;;8.52;;
21103;SDS011;10710;53.398;-1.514;2023-09-08T04:48:10;16.13;;;8.90;;
21103;SDS011;10710;53.398;-1.514;2023-09-08T04:50:55;15.32;;;8.10;;
21103;SDS011;10710;53.398;-1.514;2023-09-08T04:53:40;17.63;;;8.20;;
21103;SDS011;10710;53.398;-1.514;2023-09-08T04:56:25;14.88;;;7.88;;
21103;SDS011;10710;53.398;-1.514;2023-09-08T04:59:10;17.10;;;8.73;;
21103;SDS011;10710;53.398;-1.514;2023-09-08T05:01:54;14.88;;;8.57;;
21103;SDS011;10710;53.398;-1.514;2023-09-08T05:04:39;13.00;;;7.47;;
21103;SDS011;10710;53.398;-1.514;2023-09-08T05:07:24;14.18;;;7.60;;
21103;SDS011;10710;53.398;-1.514;2023-09-08T05:10:08;15.38;;;7.68;;
21103;SDS011;10710;53.398;-1.514;2023-09-08T05:12:53;17.38;;;8.10;;
21103;SDS011;10710;53.398;-1.514;2023-09-08T05:15:38;15.93;;;8.13;;
21103;SDS011;10710;53.398;-1.514;2023-09-08T05:18:26;14.02;;;7.63;;
21103;SDS011;10710;53.398;-1.514;2023-09-08T05:21:11;14.83;;;7.73;;
21103;SDS011;10710;53.398;-1.514;2023-09-08T05:23:57;20.27;;;8.07;;
21103;SDS011;10710;53.398;-1.514;2023-09-08T05:26:42;14.48;;;7.95;;
21103;SDS011;10710;53.398;-1.514;2023-09-08T05:29:27;13.50;;;7.25;;
21103;SDS011;10710;53.398;-1.514;2023-09-08T05:32:11;11.37;;;7.53;;
21103;SDS011;10710;53.398;-1.514;2023-09-08T05:34:56;15.02;;;7.63;;
21103;SDS011;10710;53.398;-1.514;2023-09-08T05:37:41;12.30;;;6.88;;
21103;SDS011;10710;53.398;-1.514;2023-09-08T05:40:25;11.40;;;6.70;;
21103;SDS011;10710;53.398;-1.514;2023-09-08T05:43:10;13.75;;;7.35;;
21103;SDS011;10710;53.398;-1.514;2023-09-08T05:45:55;14.37;;;7.50;;
21103;SDS011;10710;53.398;-1.514;2023-09-08T05:48:40;13.60;;;7.28;;
21103;SDS011;10710;53.398;-1.514;2023-09-08T05:51:25;14.07;;;7.40;;
21103;SDS011;10710;53.398;-1.514;2023-09-08T05:54:10;14.18;;;6.95;;
21103;SDS011;10710;53.398;-1.514;2023-09-08T05:56:55;12.63;;;7.30;;
21103;SDS011;10710;53.398;-1.514;2023-09-08T05:59:40;14.00;;;7.13;;
21103;SDS011;10710;53.398;-1.514;2023-09-08T06:02:25;15.38;;;7.05;;
21103;SDS011;10710;53.398;-1.514;2023-09-08T06:05:09;12.65;;;7.20;;
21103;SDS011;10710;53.398;-1.514;2023-09-08T06:07:54;11.32;;;6.90;;
21103;SDS011;10710;53.398;-1.514;2023-09-08T06:10:39;12.73;;;7.10;;
21103;SDS011;10710;53.398;-1.514;2023-09-08T06:13:24;15.38;;;7.75;;
21103;SDS011;10710;53.398;-1.514;2023-09-08T06:16:09;12.35;;;7.57;;
21103;SDS011;10710;53.398;-1.514;2023-09-08T06:18:54;11.95;;;6.65;;
21103;SDS011;10710;53.398;-1.514;2023-09-08T06:21:38;14.68;;;7.75;;
21103;SDS011;10710;53.398;-1.514;2023-09-08T06:24:23;11.27;;;6.50;;
21103;SDS011;10710;53.398;-1.514;2023-09-08T06:27:11;13.15;;;7.63;;
21103;SDS011;10710;53.398;-1.514;2023-09-08T06:29:56;12.73;;;7.10;;
21103;SDS011;10710;53.398;-1.514;2023-09-08T06:32:41;14.27;;;6.57;;
21103;SDS011;10710;53.398;-1.514;2023-09-08T06:35:26;11.10;;;6.25;;
21103;SDS011;10710;53.398;-1.514;2023-09-08T06:38:15;13.40;;;6.72;;
21103;SDS011;10710;53.398;-1.514;2023-09-08T06:41:00;12.07;;;7.13;;
21103;SDS011;10710;53.398;-1.514;2023-09-08T06:43:44;11.27;;;6.65;;
21103;SDS011;10710;53.398;-1.514;2023-09-08T06:46:29;12.63;;;7.60;;
21103;SDS011;10710;53.398;-1.514;2023-09-08T06:49:14;11.68;;;6.45;;
21103;SDS011;10710;53.398;-1.514;2023-09-08T06:51:59;14.47;;;6.57;;
21103;SDS011;10710;53.398;-1.514;2023-09-08T06:54:43;13.35;;;6.18;;
21103;SDS011;10710;53.398;-1.514;2023-09-08T06:57:29;12.23;;;7.13;;
21103;SDS011;10710;53.398;-1.514;2023-09-08T07:00:14;12.88;;;6.50;;
21103;SDS011;10710;53.398;-1.514;2023-09-08T07:03:01;12.93;;;6.10;;
21103;SDS011;10710;53.398;-1.514;2023-09-08T07:05:46;10.38;;;5.90;;
21103;SDS011;10710;53.398;-1.514;2023-09-08T07:08:30;12.88;;;6.38;;
21103;SDS011;10710;53.398;-1.514;2023-09-08T07:11:15;9.83;;;5.73;;
21103;SDS011;10710;53.398;-1.514;2023-09-08T07:14:01;10.63;;;5.85;;
21103;SDS011;10710;53.398;-1.514;2023-09-08T07:16:46;11.10;;;6.20;;
21103;SDS011;10710;53.398;-1.514;2023-09-08T07:19:31;12.98;;;6.20;;
21103;SDS011;10710;53.398;-1.514;2023-09-08T07:22:15;11.85;;;6.38;;
21103;SDS011;10710;53.398;-1.514;2023-09-08T07:25:00;8.60;;;5.53;;
21103;SDS011;10710;53.398;-1.514;2023-09-08T07:27:45;8.93;;;5.85;;
21103;SDS011;10710;53.398;-1.514;2023-09-08T07:30:31;10.07;;;5.72;;
21103;SDS011;10710;53.398;-1.514;2023-09-08T07:33:15;8.85;;;5.63;;
21103;SDS011;10710;53.398;-1.514;2023-09-08T07:36:07;9.35;;;6.05;;
21103;SDS011;10710;53.398;-1.514;2023-09-08T07:38:52;22.98;;;14.77;;
21103;SDS011;10710;53.398;-1.514;2023-09-08T07:41:37;13.50;;;6.13;;
21103;SDS011;10710;53.398;-1.514;2023-09-08T07:44:24;10.45;;;5.88;;
21103;SDS011;10710;53.398;-1.514;2023-09-08T07:47:08;8.40;;;5.15;;
21103;SDS011;10710;53.398;-1.514;2023-09-08T07:50:15;15.13;;;8.45;;
21103;SDS011;10710;53.398;-1.514;2023-09-08T07:52:58;14.40;;;7.55;;
21103;SDS011;10710;53.398;-1.514;2023-09-08T07:55:43;13.05;;;7.75;;
21103;SDS011;10710;53.398;-1.514;2023-09-08T07:58:28;12.23;;;7.43;;
21103;SDS011;10710;53.398;-1.514;2023-09-08T08:01:13;13.43;;;7.43;;
21103;SDS011;10710;53.398;-1.514;2023-09-08T08:03:58;12.18;;;7.22;;
21103;SDS011;10710;53.398;-1.514;2023-09-08T08:06:44;14.60;;;7.20;;
21103;SDS011;10710;53.398;-1.514;2023-09-08T08:09:29;19.08;;;9.98;;
21103;SDS011;10710;53.398;-1.514;2023-09-08T08:12:14;14.43;;;9.10;;
21103;SDS011;10710;53.398;-1.514;2023-09-08T08:14:58;16.07;;;8.87;;
21103;SDS011;10710;53.398;-1.514;2023-09-08T08:17:43;16.15;;;9.57;;
21103;SDS011;10710;53.398;-1.514;2023-09-08T08:20:27;14.60;;;9.48;;
21103;SDS011;10710;53.398;-1.514;2023-09-08T08:23:12;18.90;;;9.48;;
21103;SDS011;10710;53.398;-1.514;2023-09-08T08:25:57;13.75;;;8.45;;
21103;SDS011;10710;53.398;-1.514;2023-09-08T08:28:41;15.40;;;10.50;;
21103;SDS011;10710;53.398;-1.514;2023-09-08T08:31:26;17.13;;;9.73;;
21103;SDS011;10710;53.398;-1.514;2023-09-08T08:34:11;19.60;;;11.40;;
21103;SDS011;10710;53.398;-1.514;2023-09-08T08:36:56;23.10;;;12.70;;
21103;SDS011;10710;53.398;-1.514;2023-09-08T08:39:41;20.88;;;11.82;;
21103;SDS011;10710;53.398;-1.514;2023-09-08T08:42:30;20.00;;;11.90;;
21103;SDS011;10710;53.398;-1.514;2023-09-08T08:45:15;21.13;;;11.50;;
21103;SDS011;10710;53.398;-1.514;2023-09-08T08:48:03;22.27;;;11.88;;
21103;SDS011;10710;53.398;-1.514;2023-09-08T08:50:48;21.13;;;11.60;;
21103;SDS011;10710;53.398;-1.514;2023-09-08T08:53:34;23.73;;;11.65;;
21103;SDS011;10710;53.398;-1.514;2023-09-08T08:56:20;18.52;;;11.02;;
21103;SDS011;10710;53.398;-1.514;2023-09-08T08:59:05;20.45;;;11.88;;
21103;SDS011;10710;53.398;-1.514;2023-09-08T09:01:50;18.55;;;12.13;;
21103;SDS011;10710;53.398;-1.514;2023-09-08T09:04:36;22.25;;;11.75;;
21103;SDS011;10710;53.398;-1.514;2023-09-08T09:07:21;22.85;;;10.35;;
21103;SDS011;10710;53.398;-1.514;2023-09-08T09:10:07;22.15;;;11.82;;
21103;SDS011;10710;53.398;-1.514;2023-09-08T09:12:52;18.95;;;10.57;;
21103;SDS011;10710;53.398;-1.514;2023-09-08T09:15:36;15.70;;;10.45;;
21103;SDS011;10710;53.398;-1.514;2023-09-08T09:18:21;20.00;;;11.05;;
21103;SDS011;10710;53.398;-1.514;2023-09-08T09:21:06;19.67;;;10.48;;
21103;SDS011;10710;53.398;-1.514;2023-09-08T09:23:50;26.75;;;17.77;;
21103;SDS011;10710;53.398;-1.514;2023-09-08T09:26:35;15.15;;;9.85;;
21103;SDS011;10710;53.398;-1.514;2023-09-08T09:29:20;14.75;;;9.43;;
21103;SDS011;10710;53.398;-1.514;2023-09-08T09:32:05;15.48;;;9.98;;
21103;SDS011;10710;53.398;-1.514;2023-09-08T09:34:52;14.00;;;8.65;;
21103;SDS011;10710;53.398;-1.514;2023-09-08T09:37:40;14.07;;;8.40;;
21103;SDS011;10710;53.398;-1.514;2023-09-08T09:40:27;12.40;;;8.05;;
21103;SDS011;10710;53.398;-1.514;2023-09-08T09:43:12;14.82;;;9.30;;
21103;SDS011;10710;53.398;-1.514;2023-09-08T09:45:57;21.30;;;10.75;;
21103;SDS011;10710;53.398;-1.514;2023-09-08T09:48:42;15.57;;;8.50;;
21103;SDS011;10710;53.398;-1.514;2023-09-08T09:51:27;14.18;;;8.82;;
21103;SDS011;10710;53.398;-1.514;2023-09-08T09:54:11;18.58;;;9.63;;
21103;SDS011;10710;53.398;-1.514;2023-09-08T09:56:56;14.57;;;8.73;;
21103;SDS011;10710;53.398;-1.514;2023-09-08T09:59:41;11.85;;;7.75;;
21103;SDS011;10710;53.398;-1.514;2023-09-08T10:02:26;21.63;;;10.18;;
21103;SDS011;10710;53.398;-1.514;2023-09-08T10:05:11;18.23;;;8.60;;
21103;SDS011;10710;53.398;-1.514;2023-09-08T10:07:56;15.60;;;8.88;;
21103;SDS011;10710;53.398;-1.514;2023-09-08T10:10:42;18.85;;;9.13;;
21103;SDS011;10710;53.398;-1.514;2023-09-08T10:13:30;16.42;;;9.25;;
21103;SDS011;10710;53.398;-1.514;2023-09-08T10:16:16;17.33;;;10.55;;
21103;SDS011;10710;53.398;-1.514;2023-09-08T10:19:04;15.35;;;9.65;;
21103;SDS011;10710;53.398;-1.514;2023-09-08T10:21:54;15.30;;;9.70;;
21103;SDS011;10710;53.398;-1.514;2023-09-08T10:24:39;19.83;;;9.57;;
21103;SDS011;10710;53.398;-1.514;2023-09-08T10:27:25;14.95;;;8.02;;
21103;SDS011;10710;53.398;-1.514;2023-09-08T10:30:10;10.50;;;7.38;;
21103;SDS011;10710;53.398;-1.514;2023-09-08T10:32:56;21.10;;;8.73;;
21103;SDS011;10710;53.398;-1.514;2023-09-08T10:35:41;18.90;;;9.35;;
21103;SDS011;10710;53.398;-1.514;2023-09-08T10:38:32;16.48;;;9.73;;
21103;SDS011;10710;53.398;-1.514;2023-09-08T10:44:07;19.42;;;10.75;;
21103;SDS011;10710;53.398;-1.514;2023-09-08T10:46:52;17.15;;;9.93;;
21103;SDS011;10710;53.398;-1.514;2023-09-08T10:49:38;19.37;;;8.67;;
21103;SDS011;10710;53.398;-1.514;2023-09-08T10:52:23;13.82;;;8.82;;
21103;SDS011;10710;53.398;-1.514;2023-09-08T10:55:08;16.50;;;9.30;;
21103;SDS011;10710;53.398;-1.514;2023-09-08T10:57:54;16.15;;;9.93;;
21103;SDS011;10710;53.398;-1.514;2023-09-08T11:00:43;15.98;;;8.48;;
21103;SDS011;10710;53.398;-1.514;2023-09-08T11:03:42;16.63;;;8.70;;
21103;SDS011;10710;53.398;-1.514;2023-09-08T11:06:27;10.87;;;7.03;;
21103;SDS011;10710;53.398;-1.514;2023-09-08T11:09:13;15.88;;;7.43;;
21103;SDS011;10710;53.398;-1.514;2023-09-08T11:12:00;17.67;;;8.95;;
21103;SDS011;10710;53.398;-1.514;2023-09-08T11:14:46;17.23;;;8.60;;
21103;SDS011;10710;53.398;-1.514;2023-09-08T11:17:31;12.55;;;7.57;;
21103;SDS011;10710;53.398;-1.514;2023-09-08T11:20:16;19.65;;;9.38;;
21103;SDS011;10710;53.398;-1.514;2023-09-08T11:23:01;17.52;;;8.60;;
21103;SDS011;10710;53.398;-1.514;2023-09-08T11:25:51;15.38;;;7.47;;
21103;SDS011;10710;53.398;-1.514;2023-09-08T11:28:35;12.05;;;6.47;;
21103;SDS011;10710;53.398;-1.514;2023-09-08T11:31:21;15.30;;;6.90;;
21103;SDS011;10710;53.398;-1.514;2023-09-08T11:34:06;13.38;;;7.50;;
21103;SDS011;10710;53.398;-1.514;2023-09-08T11:36:50;8.18;;;5.38;;
21103;SDS011;10710;53.398;-1.514;2023-09-08T11:39:37;12.90;;;6.30;;
21103;SDS011;10710;53.398;-1.514;2023-09-08T11:42:22;14.57;;;6.67;;
21103;SDS011;10710;53.398;-1.514;2023-09-08T11:45:08;11.95;;;6.90;;
21103;SDS011;10710;53.398;-1.514;2023-09-08T11:47:52;10.93;;;6.82;;
21103;SDS011;10710;53.398;-1.514;2023-09-08T11:50:37;10.13;;;5.50;;
21103;SDS011;10710;53.398;-1.514;2023-09-08T11:53:22;10.00;;;5.60;;
21103;SDS011;10710;53.398;-1.514;2023-09-08T11:56:07;14.13;;;6.00;;
21103;SDS011;10710;53.398;-1.514;2023-09-08T11:58:52;15.00;;;7.00;;
21103;SDS011;10710;53.398;-1.514;2023-09-08T12:01:37;9.45;;;5.75;;
21103;SDS011;10710;53.398;-1.514;2023-09-08T12:04:22;14.10;;;5.57;;
21103;SDS011;10710;53.398;-1.514;2023-09-08T12:07:07;14.07;;;5.65;;
21103;SDS011;10710;53.398;-1.514;2023-09-08T12:10:06;12.00;;;6.33;;
21103;SDS011;10710;53.398;-1.514;2023-09-08T12:12:51;10.10;;;6.57;;
21103;SDS011;10710;53.398;-1.514;2023-09-08T12:15:38;13.07;;;7.20;;
21103;SDS011;10710;53.398;-1.514;2023-09-08T12:18:36;15.85;;;8.43;;
21103;SDS011;10710;53.398;-1.514;2023-09-08T12:21:21;10.65;;;6.32;;
21103;SDS011;10710;53.398;-1.514;2023-09-08T12:24:06;6.80;;;5.50;;
21103;SDS011;10710;53.398;-1.514;2023-09-08T12:26:51;16.70;;;9.00;;
21103;SDS011;10710;53.398;-1.514;2023-09-08T12:29:36;21.33;;;9.38;;
21103;SDS011;10710;53.398;-1.514;2023-09-08T12:32:21;13.73;;;7.80;;
21103;SDS011;10710;53.398;-1.514;2023-09-08T12:35:08;15.85;;;7.10;;
21103;SDS011;10710;53.398;-1.514;2023-09-08T12:38:02;16.63;;;6.80;;
21103;SDS011;10710;53.398;-1.514;2023-09-08T12:40:48;10.48;;;6.22;;
21103;SDS011;10710;53.398;-1.514;2023-09-08T12:43:33;18.00;;;8.38;;
21103;SDS011;10710;53.398;-1.514;2023-09-08T12:46:19;16.98;;;8.15;;
21103;SDS011;10710;53.398;-1.514;2023-09-08T12:49:04;9.90;;;6.13;;
21103;SDS011;10710;53.398;-1.514;2023-09-08T12:51:48;11.65;;;7.03;;
21103;SDS011;10710;53.398;-1.514;2023-09-08T12:54:33;14.43;;;8.38;;
21103;SDS011;10710;53.398;-1.514;2023-09-08T12:57:18;15.48;;;6.57;;
21103;SDS011;10710;53.398;-1.514;2023-09-08T13:00:03;17.48;;;7.50;;
21103;SDS011;10710;53.398;-1.514;2023-09-08T13:02:48;15.10;;;8.27;;
21103;SDS011;10710;53.398;-1.514;2023-09-08T13:05:33;20.58;;;8.73;;
21103;SDS011;10710;53.398;-1.514;2023-09-08T13:08:18;15.32;;;7.53;;
21103;SDS011;10710;53.398;-1.514;2023-09-08T13:11:03;16.65;;;7.65;;
21103;SDS011;10710;53.398;-1.514;2023-09-08T13:13:47;12.30;;;6.50;;
21103;SDS011;10710;53.398;-1.514;2023-09-08T13:16:32;15.45;;;6.97;;
21103;SDS011;10710;53.398;-1.514;2023-09-08T13:19:17;21.20;;;7.55;;
21103;SDS011;10710;53.398;-1.514;2023-09-08T13:22:01;14.30;;;6.97;;
21103;SDS011;10710;53.398;-1.514;2023-09-08T13:24:46;15.77;;;7.88;;
21103;SDS011;10710;53.398;-1.514;2023-09-08T13:27:31;14.25;;;6.53;;
21103;SDS011;10710;53.398;-1.514;2023-09-08T13:30:16;13.87;;;7.00;;
21103;SDS011;10710;53.398;-1.514;2023-09-08T13:33:02;13.98;;;6.15;;
21103;SDS011;10710;53.398;-1.514;2023-09-08T13:35:47;13.77;;;7.22;;
21103;SDS011;10710;53.398;-1.514;2023-09-08T13:38:32;11.68;;;6.60;;
21103;SDS011;10710;53.398;-1.514;2023-09-08T13:41:16;15.77;;;7.07;;
21103;SDS011;10710;53.398;-1.514;2023-09-08T13:44:01;10.10;;;7.05;;
21103;SDS011;10710;53.398;-1.514;2023-09-08T13:46:46;11.48;;;6.22;;
21103;SDS011;10710;53.398;-1.514;2023-09-08T13:49:31;12.63;;;7.22;;
21103;SDS011;10710;53.398;-1.514;2023-09-08T13:52:15;10.73;;;6.53;;
21103;SDS011;10710;53.398;-1.514;2023-09-08T13:55:00;9.57;;;5.60;;
21103;SDS011;10710;53.398;-1.514;2023-09-08T13:57:45;10.05;;;5.50;;
21103;SDS011;10710;53.398;-1.514;2023-09-08T14:00:30;14.85;;;6.97;;
21103;SDS011;10710;53.398;-1.514;2023-09-08T14:03:16;12.65;;;6.03;;
21103;SDS011;10710;53.398;-1.514;2023-09-08T14:06:01;9.65;;;5.72;;
21103;SDS011;10710;53.398;-1.514;2023-09-08T14:08:46;11.45;;;6.80;;
21103;SDS011;10710;53.398;-1.514;2023-09-08T14:11:31;12.90;;;5.80;;
21103;SDS011;10710;53.398;-1.514;2023-09-08T14:14:15;6.10;;;5.10;;
21103;SDS011;10710;53.398;-1.514;2023-09-08T14:17:00;11.70;;;6.10;;
21103;SDS011;10710;53.398;-1.514;2023-09-08T14:19:45;8.20;;;6.43;;
21103;SDS011;10710;53.398;-1.514;2023-09-08T14:22:29;9.70;;;6.10;;
21103;SDS011;10710;53.398;-1.514;2023-09-08T14:25:14;14.25;;;6.72;;
21103;SDS011;10710;53.398;-1.514;2023-09-08T14:27:59;10.80;;;5.25;;
21103;SDS011;10710;53.398;-1.514;2023-09-08T14:30:47;9.07;;;6.10;;
21103;SDS011;10710;53.398;-1.514;2023-09-08T14:33:34;7.63;;;5.57;;
21103;SDS011;10710;53.398;-1.514;2023-09-08T14:36:19;9.70;;;5.40;;
21103;SDS011;10710;53.398;-1.514;2023-09-08T14:39:04;6.95;;;5.35;;
21103;SDS011;10710;53.398;-1.514;2023-09-08T14:41:49;6.72;;;4.90;;
21103;SDS011;10710;53.398;-1.514;2023-09-08T14:44:36;9.23;;;5.13;;
21103;SDS011;10710;53.398;-1.514;2023-09-08T14:47:21;8.05;;;4.63;;
21103;SDS011;10710;53.398;-1.514;2023-09-08T14:50:05;12.05;;;6.55;;
21103;SDS011;10710;53.398;-1.514;2023-09-08T14:52:50;9.18;;;4.10;;
21103;SDS011;10710;53.398;-1.514;2023-09-08T14:55:35;5.95;;;4.18;;
21103;SDS011;10710;53.398;-1.514;2023-09-08T14:58:20;7.90;;;4.47;;
21103;SDS011;10710;53.398;-1.514;2023-09-08T15:01:05;8.38;;;4.80;;
21103;SDS011;10710;53.398;-1.514;2023-09-08T15:03:52;9.80;;;4.20;;
21103;SDS011;10710;53.398;-1.514;2023-09-08T15:06:39;7.95;;;4.22;;
21103;SDS011;10710;53.398;-1.514;2023-09-08T15:09:23;8.73;;;4.97;;
21103;SDS011;10710;53.398;-1.514;2023-09-08T15:12:08;9.00;;;4.78;;
21103;SDS011;10710;53.398;-1.514;2023-09-08T15:14:53;14.10;;;5.10;;
21103;SDS011;10710;53.398;-1.514;2023-09-08T15:17:38;13.07;;;5.82;;
21103;SDS011;10710;53.398;-1.514;2023-09-08T15:20:22;7.70;;;4.90;;
21103;SDS011;10710;53.398;-1.514;2023-09-08T15:23:07;7.45;;;4.90;;
21103;SDS011;10710;53.398;-1.514;2023-09-08T15:28:36;6.05;;;4.80;;
21103;SDS011;10710;53.398;-1.514;2023-09-08T15:31:22;9.00;;;4.22;;
21103;SDS011;10710;53.398;-1.514;2023-09-08T15:34:07;9.13;;;4.07;;
21103;SDS011;10710;53.398;-1.514;2023-09-08T15:36:53;6.25;;;4.03;;
21103;SDS011;10710;53.398;-1.514;2023-09-08T15:39:38;9.10;;;3.88;;
21103;SDS011;10710;53.398;-1.514;2023-09-08T15:42:24;8.93;;;3.88;;
21103;SDS011;10710;53.398;-1.514;2023-09-08T15:45:08;9.23;;;4.00;;
21103;SDS011;10710;53.398;-1.514;2023-09-08T15:47:55;7.97;;;3.80;;
21103;SDS011;10710;53.398;-1.514;2023-09-08T15:50:39;12.80;;;3.85;;
21103;SDS011;10710;53.398;-1.514;2023-09-08T15:53:24;10.38;;;3.78;;
21103;SDS011;10710;53.398;-1.514;2023-09-08T15:56:09;7.43;;;3.75;;
21103;SDS011;10710;53.398;-1.514;2023-09-08T15:58:54;6.00;;;3.70;;
21103;SDS011;10710;53.398;-1.514;2023-09-08T16:01:41;9.27;;;4.00;;
21103;SDS011;10710;53.398;-1.514;2023-09-08T16:04:26;7.53;;;3.72;;
21103;SDS011;10710;53.398;-1.514;2023-09-08T16:07:10;6.68;;;4.00;;
21103;SDS011;10710;53.398;-1.514;2023-09-08T16:09:55;9.10;;;4.23;;
21103;SDS011;10710;53.398;-1.514;2023-09-08T16:12:40;7.70;;;4.10;;
21103;SDS011;10710;53.398;-1.514;2023-09-08T16:15:25;9.88;;;4.30;;
21103;SDS011;10710;53.398;-1.514;2023-09-08T16:18:09;6.50;;;4.40;;